sensor_id;sensor_type;location;lat;lon;timestamp;pressure;altitude;pressure_sealevel;temperature;humidity
6829;BME280;17930;48.592;8.868;2023-02-15T00:01:24;98053.63;;;-1.46;100.00
6829;BME280;17930;48.592;8.868;2023-02-15T00:03:51;98053.63;;;-1.46;100.00
6829;BME280;17930;48.592;8.868;2023-02-15T00:06:18;98046.91;;;-1.47;100.00
6829;BME280;17930;48.592;8.868;2023-02-15T00:08:48;98056.19;;;-1.54;100.00
6829;BME280;17930;48.592;8.868;2023-02-15T00:11:17;98050.16;;;-1.61;100.00
6829;BME280;17930;48.592;8.868;2023-02-15T00:14:08;98044.06;;;-1.60;100.00
6829;BME280;17930;48.592;8.868;2023-02-15T00:16:36;98038.34;;;-1.62;100.00
6829;BME280;17930;48.592;8.868;2023-02-15T00:19:03;98040.84;;;-1.54;100.00
6829;BME280;17930;48.592;8.868;2023-02-15T00:21:31;98032.22;;;-1.53;100.00
6829;BME280;17930;48.592;8.868;2023-02-15T00:23:59;98031.94;;;-1.58;100.00
6829;BME280;17930;48.592;8.868;2023-02-15T00:26:27;98031.91;;;-1.50;100.00
6829;BME280;17930;48.592;8.868;2023-02-15T00:28:55;98024.63;;;-1.23;100.00
6829;BME280;17930;48.592;8.868;2023-02-15T00:31:25;98036.63;;;-1.31;100.00
6829;BME280;17930;48.592;8.868;2023-02-15T00:33:53;98034.09;;;-1.39;100.00
6829;BME280;17930;48.592;8.868;2023-02-15T00:36:19;98019.28;;;-1.52;100.00
6829;BME280;17930;48.592;8.868;2023-02-15T00:38:46;98033.09;;;-1.30;100.00
6829;BME280;17930;48.592;8.868;2023-02-15T00:41:13;98034.09;;;-1.39;100.00
6829;BME280;17930;48.592;8.868;2023-02-15T00:43:40;98036.56;;;-1.53;100.00
6829;BME280;17930;48.592;8.868;2023-02-15T00:46:06;98029.72;;;-1.61;100.00
6829;BME280;17930;48.592;8.868;2023-02-15T00:48:35;98027.50;;;-1.72;100.00
6829;BME280;17930;48.592;8.868;2023-02-15T00:51:02;98030.72;;;-1.78;100.00
6829;BME280;17930;48.592;8.868;2023-02-15T00:53:29;98025.28;;;-1.83;100.00
6829;BME280;17930;48.592;8.868;2023-02-15T00:55:56;98024.31;;;-1.82;100.00
6829;BME280;17930;48.592;8.868;2023-02-15T00:58:24;98026.72;;;-1.88;100.00
6829;BME280;17930;48.592;8.868;2023-02-15T01:00:51;98022.88;;;-1.84;100.00
6829;BME280;17930;48.592;8.868;2023-02-15T01:03:19;98017.59;;;-1.75;100.00
6829;BME280;17930;48.592;8.868;2023-02-15T01:05:49;98028.44;;;-1.65;100.00
6829;BME280;17930;48.592;8.868;2023-02-15T01:08:16;98019.28;;;-1.52;100.00
6829;BME280;17930;48.592;8.868;2023-02-15T01:10:43;98020.03;;;-1.43;100.00
6829;BME280;17930;48.592;8.868;2023-02-15T01:13:14;98023.59;;;-1.52;100.00
6829;BME280;17930;48.592;8.868;2023-02-15T01:15:41;98028.28;;;-1.71;100.00
6829;BME280;17930;48.592;8.868;2023-02-15T01:18:08;98026.56;;;-1.79;100.00
6829;BME280;17930;48.592;8.868;2023-02-15T01:20:36;98023.69;;;-1.84;100.00
6829;BME280;17930;48.592;8.868;2023-02-15T01:23:05;98023.38;;;-1.97;100.00
6829;BME280;17930;48.592;8.868;2023-02-15T01:25:34;98017.66;;;-2.06;100.00
6829;BME280;17930;48.592;8.868;2023-02-15T01:28:01;98007.13;;;-2.04;100.00
6829;BME280;17930;48.592;8.868;2023-02-15T01:30:28;98017.03;;;-2.01;100.00
6829;BME280;17930;48.592;8.868;2023-02-15T01:32:54;98014.47;;;-2.08;100.00
6829;BME280;17930;48.592;8.868;2023-02-15T01:35:21;98014.19;;;-2.21;100.00
6829;BME280;17930;48.592;8.868;2023-02-15T01:37:48;98014.63;;;-2.18;100.00
6829;BME280;17930;48.592;8.868;2023-02-15T01:40:17;98018.97;;;-2.10;100.00
6829;BME280;17930;48.592;8.868;2023-02-15T01:42:44;98014.97;;;-2.21;100.00
6829;BME280;17930;48.592;8.868;2023-02-15T01:45:20;98007.00;;;-2.26;100.00
6829;BME280;17930;48.592;8.868;2023-02-15T01:47:51;98003.50;;;-2.33;100.00
6829;BME280;17930;48.592;8.868;2023-02-15T01:50:21;98002.16;;;-2.05;100.00
6829;BME280;17930;48.592;8.868;2023-02-15T01:52:52;97998.31;;;-1.93;100.00
6829;BME280;17930;48.592;8.868;2023-02-15T01:55:25;98005.50;;;-1.97;100.00
6829;BME280;17930;48.592;8.868;2023-02-15T01:57:53;98000.75;;;-2.07;100.00
6829;BME280;17930;48.592;8.868;2023-02-15T02:00:20;97999.63;;;-2.05;100.00
6829;BME280;17930;48.592;8.868;2023-02-15T02:02:50;98002.66;;;-2.09;100.00
6829;BME280;17930;48.592;8.868;2023-02-15T02:05:19;98002.38;;;-2.22;100.00
6829;BME280;17930;48.592;8.868;2023-02-15T02:07:46;98001.41;;;-2.29;100.00
6829;BME280;17930;48.592;8.868;2023-02-15T02:10:17;97995.34;;;-2.36;100.00
6829;BME280;17930;48.592;8.868;2023-02-15T02:12:47;97989.16;;;-2.50;100.00
6829;BME280;17930;48.592;8.868;2023-02-15T02:15:16;97993.75;;;-2.53;100.00
6829;BME280;17930;48.592;8.868;2023-02-15T02:17:54;97994.38;;;-2.11;100.00
6829;BME280;17930;48.592;8.868;2023-02-15T02:20:29;97985.28;;;-2.14;100.00
6829;BME280;17930;48.592;8.868;2023-02-15T02:23:25;97982.25;;;-2.17;100.00
6829;BME280;17930;48.592;8.868;2023-02-15T02:35:08;97987.53;;;-2.19;100.00
6829;BME280;17930;48.592;8.868;2023-02-15T02:37:46;97981.47;;;-2.26;100.00
6829;BME280;17930;48.592;8.868;2023-02-15T02:40:20;97975.25;;;-2.39;100.00
6829;BME280;17930;48.592;8.868;2023-02-15T02:42:56;97978.47;;;-2.37;100.00
6829;BME280;17930;48.592;8.868;2023-02-15T02:45:28;97982.28;;;-2.41;100.00
6829;BME280;17930;48.592;8.868;2023-02-15T02:48:01;97982.25;;;-2.33;100.00
6829;BME280;17930;48.592;8.868;2023-02-15T02:50:31;97976.53;;;-2.43;100.00
6829;BME280;17930;48.592;8.868;2023-02-15T02:52:59;97978.13;;;-2.50;100.00
6829;BME280;17930;48.592;8.868;2023-02-15T02:55:29;97981.81;;;-2.53;100.00
6829;BME280;17930;48.592;8.868;2023-02-15T02:58:01;97980.38;;;-2.55;100.00
6829;BME280;17930;48.592;8.868;2023-02-15T03:00:31;97973.38;;;-2.61;100.00
6829;BME280;17930;48.592;8.868;2023-02-15T03:03:03;97979.41;;;-2.62;100.00
6829;BME280;17930;48.592;8.868;2023-02-15T03:05:34;97979.72;;;-2.73;100.00
6829;BME280;17930;48.592;8.868;2023-02-15T03:08:04;97981.31;;;-2.80;100.00
6829;BME280;17930;48.592;8.868;2023-02-15T03:10:35;97983.22;;;-2.82;100.00
6829;BME280;17930;48.592;8.868;2023-02-15T03:13:03;97978.47;;;-2.77;100.00
6829;BME280;17930;48.592;8.868;2023-02-15T03:15:33;97975.13;;;-2.69;100.00
6829;BME280;17930;48.592;8.868;2023-02-15T03:18:16;97969.66;;;-2.58;100.00
6829;BME280;17930;48.592;8.868;2023-02-15T03:20:46;97976.53;;;-2.59;100.00
6829;BME280;17930;48.592;8.868;2023-02-15T03:23:16;97975.81;;;-1.98;100.00
6829;BME280;17930;48.592;8.868;2023-02-15T03:25:48;97976.38;;;-1.72;100.00
6829;BME280;17930;48.592;8.868;2023-02-15T03:28:19;97971.69;;;-2.06;100.00
6829;BME280;17930;48.592;8.868;2023-02-15T03:30:51;97974.94;;;-2.28;100.00
6829;BME280;17930;48.592;8.868;2023-02-15T03:33:20;97974.63;;;-2.49;100.00
6829;BME280;17930;48.592;8.868;2023-02-15T03:35:53;97971.44;;;-2.59;100.00
6829;BME280;17930;48.592;8.868;2023-02-15T03:38:26;97979.25;;;-2.68;100.00
6829;BME280;17930;48.592;8.868;2023-02-15T03:40:57;97978.78;;;-2.72;100.00
6829;BME280;17930;48.592;8.868;2023-02-15T03:43:44;97977.66;;;-2.77;100.00
6829;BME280;17930;48.592;8.868;2023-02-15T03:46:16;97975.09;;;-2.77;100.00
6829;BME280;17930;48.592;8.868;2023-02-15T03:48:49;97971.91;;;-2.79;100.00
6829;BME280;17930;48.592;8.868;2023-02-15T03:51:22;97975.88;;;-2.53;100.00
6829;BME280;17930;48.592;8.868;2023-02-15T03:54:03;97974.28;;;-2.46;100.00
6829;BME280;17930;48.592;8.868;2023-02-15T03:56:33;97970.13;;;-2.23;100.00
6829;BME280;17930;48.592;8.868;2023-02-15T03:59:01;97977.34;;;-2.51;100.00
6829;BME280;17930;48.592;8.868;2023-02-15T04:01:51;97970.16;;;-2.71;100.00
6829;BME280;17930;48.592;8.868;2023-02-15T04:04:29;97969.22;;;-2.78;100.00
6829;BME280;17930;48.592;8.868;2023-02-15T04:06:59;97965.84;;;-2.86;100.00
6829;BME280;17930;48.592;8.868;2023-02-15T04:09:26;97962.19;;;-2.92;100.00
6829;BME280;17930;48.592;8.868;2023-02-15T04:12:10;97955.78;;;-2.96;100.00
6829;BME280;17930;48.592;8.868;2023-02-15T04:14:37;97964.72;;;-3.00;100.00
6829;BME280;17930;48.592;8.868;2023-02-15T04:17:21;97959.63;;;-3.07;100.00
6829;BME280;17930;48.592;8.868;2023-02-15T04:19:48;97969.63;;;-3.14;100.00
6829;BME280;17930;48.592;8.868;2023-02-15T04:22:34;97964.22;;;-3.19;100.00
6829;BME280;17930;48.592;8.868;2023-02-15T04:25:19;97956.16;;;-2.67;100.00
6829;BME280;17930;48.592;8.868;2023-02-15T04:27:48;97963.78;;;-2.75;100.00
6829;BME280;17930;48.592;8.868;2023-02-15T04:30:17;97949.91;;;-2.96;100.00
6829;BME280;17930;48.592;8.868;2023-02-15T04:32:44;97959.28;;;-2.97;100.00
6829;BME280;17930;48.592;8.868;2023-02-15T04:35:12;97955.66;;;-2.70;100.00
6829;BME280;17930;48.592;8.868;2023-02-15T04:37:40;97958.69;;;-2.59;100.00
6829;BME280;17930;48.592;8.868;2023-02-15T04:40:09;97961.56;;;-2.54;100.00
6829;BME280;17930;48.592;8.868;2023-02-15T04:42:39;97966.34;;;-2.59;100.00
6829;BME280;17930;48.592;8.868;2023-02-15T04:45:06;97966.63;;;-2.70;100.00
6829;BME280;17930;48.592;8.868;2023-02-15T04:47:33;97965.72;;;-2.77;100.00
6829;BME280;17930;48.592;8.868;2023-02-15T04:50:00;97960.25;;;-2.90;100.00
6829;BME280;17930;48.592;8.868;2023-02-15T04:52:28;97961.84;;;-3.05;100.00
6829;BME280;17930;48.592;8.868;2023-02-15T04:54:59;97967.72;;;-3.20;100.00
6829;BME280;17930;48.592;8.868;2023-02-15T04:57:25;97968.16;;;-3.32;100.00
6829;BME280;17930;48.592;8.868;2023-02-15T04:59:52;97966.41;;;-3.40;100.00
6829;BME280;17930;48.592;8.868;2023-02-15T05:02:19;97965.63;;;-3.40;100.00
6829;BME280;17930;48.592;8.868;2023-02-15T05:04:46;97965.63;;;-3.40;100.00
6829;BME280;17930;48.592;8.868;2023-02-15T05:07:13;97953.19;;;-3.43;100.00
6829;BME280;17930;48.592;8.868;2023-02-15T05:09:40;97950.97;;;-3.30;100.00
6829;BME280;17930;48.592;8.868;2023-02-15T05:12:09;97952.22;;;-3.26;100.00
6829;BME280;17930;48.592;8.868;2023-02-15T05:14:35;97943.16;;;-3.29;100.00
6829;BME280;17930;48.592;8.868;2023-02-15T05:17:02;97946.19;;;-3.33;100.00
6829;BME280;17930;48.592;8.868;2023-02-15T05:19:31;97944.25;;;-3.47;100.00
6829;BME280;17930;48.592;8.868;2023-02-15T05:21:57;97936.56;;;-3.55;100.00
6829;BME280;17930;48.592;8.868;2023-02-15T05:24:24;97946.59;;;-3.61;100.00
6829;BME280;17930;48.592;8.868;2023-02-15T05:27:14;97937.50;;;-3.64;100.00
6829;BME280;17930;48.592;8.868;2023-02-15T05:29:59;97948.38;;;-3.54;100.00
6829;BME280;17930;48.592;8.868;2023-02-15T05:32:26;97943.91;;;-3.52;100.00
6829;BME280;17930;48.592;8.868;2023-02-15T05:34:53;97941.97;;;-3.58;100.00
6829;BME280;17930;48.592;8.868;2023-02-15T05:37:23;97938.63;;;-3.58;100.00
6829;BME280;17930;48.592;8.868;2023-02-15T05:39:51;97943.44;;;-3.48;100.00
6829;BME280;17930;48.592;8.868;2023-02-15T05:42:19;97949.00;;;-3.60;100.00
6829;BME280;17930;48.592;8.868;2023-02-15T05:44:45;97947.69;;;-3.64;100.00
6829;BME280;17930;48.592;8.868;2023-02-15T05:47:12;97953.41;;;-3.70;100.00
6829;BME280;17930;48.592;8.868;2023-02-15T05:49:39;97955.59;;;-3.75;100.00
6829;BME280;17930;48.592;8.868;2023-02-15T05:52:05;97952.44;;;-3.77;100.00
6829;BME280;17930;48.592;8.868;2023-02-15T05:54:32;97956.53;;;-3.84;100.00
6829;BME280;17930;48.592;8.868;2023-02-15T05:56:58;97957.84;;;-3.80;100.00
6829;BME280;17930;48.592;8.868;2023-02-15T05:59:26;97962.31;;;-3.74;100.00
6829;BME280;17930;48.592;8.868;2023-02-15T06:01:53;97956.59;;;-3.68;100.00
6829;BME280;17930;48.592;8.868;2023-02-15T06:04:20;97957.06;;;-3.64;100.00
6829;BME280;17930;48.592;8.868;2023-02-15T06:06:46;97956.59;;;-3.68;100.00
6829;BME280;17930;48.592;8.868;2023-02-15T06:09:13;97967.56;;;-3.75;100.00
6829;BME280;17930;48.592;8.868;2023-02-15T06:11:40;97968.66;;;-3.78;100.00
6829;BME280;17930;48.592;8.868;2023-02-15T06:14:06;97972.75;;;-3.85;100.00
6829;BME280;17930;48.592;8.868;2023-02-15T06:16:34;97976.56;;;-3.89;100.00
6829;BME280;17930;48.592;8.868;2023-02-15T06:19:01;97972.44;;;-3.90;100.00
6829;BME280;17930;48.592;8.868;2023-02-15T06:21:29;97968.91;;;-3.97;100.00
6829;BME280;17930;48.592;8.868;2023-02-15T06:23:56;97974.00;;;-3.89;100.00
6829;BME280;17930;48.592;8.868;2023-02-15T06:26:22;97973.22;;;-3.89;100.00
6829;BME280;17930;48.592;8.868;2023-02-15T06:28:49;97971.78;;;-3.92;100.00
6829;BME280;17930;48.592;8.868;2023-02-15T06:31:16;97979.09;;;-3.89;100.00
6829;BME280;17930;48.592;8.868;2023-02-15T06:33:44;97974.38;;;-3.84;100.00
6829;BME280;17930;48.592;8.868;2023-02-15T06:36:10;97982.78;;;-3.83;100.00
6829;BME280;17930;48.592;8.868;2023-02-15T06:38:38;97978.22;;;-3.80;100.00
6829;BME280;17930;48.592;8.868;2023-02-15T06:41:04;97979.31;;;-3.82;100.00
6829;BME280;17930;48.592;8.868;2023-02-15T06:43:31;97986.84;;;-3.65;100.00
6829;BME280;17930;48.592;8.868;2023-02-15T06:45:59;97980.53;;;-3.53;100.00
6829;BME280;17930;48.592;8.868;2023-02-15T06:48:26;97977.03;;;-3.52;100.00
6829;BME280;17930;48.592;8.868;2023-02-15T06:50:53;97986.38;;;-3.60;100.00
6829;BME280;17930;48.592;8.868;2023-02-15T06:53:20;97985.44;;;-3.59;100.00
6829;BME280;17930;48.592;8.868;2023-02-15T06:55:47;97989.44;;;-3.57;100.00
6829;BME280;17930;48.592;8.868;2023-02-15T06:58:14;97989.44;;;-3.57;100.00
6829;BME280;17930;48.592;8.868;2023-02-15T07:00:40;97995.53;;;-3.50;100.00
6829;BME280;17930;48.592;8.868;2023-02-15T07:03:07;97986.16;;;-3.42;100.00
6829;BME280;17930;48.592;8.868;2023-02-15T07:05:34;97990.78;;;-3.29;100.00
6829;BME280;17930;48.592;8.868;2023-02-15T07:08:02;97992.44;;;-3.20;100.00
6829;BME280;17930;48.592;8.868;2023-02-15T07:10:29;97987.97;;;-3.03;100.00
6829;BME280;17930;48.592;8.868;2023-02-15T07:12:55;97982.88;;;-3.03;100.00
6829;BME280;17930;48.592;8.868;2023-02-15T07:15:21;97984.00;;;-2.97;100.00
6829;BME280;17930;48.592;8.868;2023-02-15T07:17:48;97980.19;;;-2.77;100.00
6829;BME280;17930;48.592;8.868;2023-02-15T07:20:17;97981.31;;;-2.32;100.00
6829;BME280;17930;48.592;8.868;2023-02-15T07:22:45;97981.31;;;-2.32;100.00
6829;BME280;17930;48.592;8.868;2023-02-15T07:25:13;97980.00;;;-2.20;100.00
6829;BME280;17930;48.592;8.868;2023-02-15T07:27:40;97981.88;;;-1.99;100.00
6829;BME280;17930;48.592;8.868;2023-02-15T07:30:09;97982.56;;;-2.12;100.00
6829;BME280;17930;48.592;8.868;2023-02-15T07:32:36;97974.94;;;-1.74;100.00
6829;BME280;17930;48.592;8.868;2023-02-15T07:35:23;97974.66;;;-1.79;100.00
6829;BME280;17930;48.592;8.868;2023-02-15T07:37:49;97975.00;;;-1.90;100.00
6829;BME280;17930;48.592;8.868;2023-02-15T07:40:17;97977.06;;;-1.94;100.00
6829;BME280;17930;48.592;8.868;2023-02-15T07:42:44;97974.78;;;-1.73;100.00
6829;BME280;17930;48.592;8.868;2023-02-15T07:45:11;97972.72;;;-1.39;100.00
6829;BME280;17930;48.592;8.868;2023-02-15T07:47:37;97974.25;;;-1.30;100.00
6829;BME280;17930;48.592;8.868;2023-02-15T07:50:05;97971.91;;;-1.09;100.00
6829;BME280;17930;48.592;8.868;2023-02-15T07:52:32;97968.09;;;-1.13;100.00
6829;BME280;17930;48.592;8.868;2023-02-15T07:54:58;97968.44;;;-1.16;100.00
6829;BME280;17930;48.592;8.868;2023-02-15T07:57:28;97965.50;;;-1.05;100.00
6829;BME280;17930;48.592;8.868;2023-02-15T07:59:54;97967.13;;;-1.12;100.00
6829;BME280;17930;48.592;8.868;2023-02-15T08:02:21;97966.53;;;-0.92;100.00
6829;BME280;17930;48.592;8.868;2023-02-15T08:04:47;97962.59;;;-1.02;100.00
6829;BME280;17930;48.592;8.868;2023-02-15T08:07:14;97956.88;;;-1.04;100.00
6829;BME280;17930;48.592;8.868;2023-02-15T08:09:41;97970.25;;;-0.95;100.00
6829;BME280;17930;48.592;8.868;2023-02-15T08:12:07;97963.13;;;-0.85;100.00
6829;BME280;17930;48.592;8.868;2023-02-15T08:14:35;97962.66;;;-0.66;100.00
6829;BME280;17930;48.592;8.868;2023-02-15T08:17:02;97962.47;;;-0.42;100.00
6829;BME280;17930;48.592;8.868;2023-02-15T08:19:31;97964.00;;;-0.19;100.00
6829;BME280;17930;48.592;8.868;2023-02-15T08:22:01;97969.66;;;0.05;100.00
6829;BME280;17930;48.592;8.868;2023-02-15T08:24:29;97953.50;;;1.04;100.00
6829;BME280;17930;48.592;8.868;2023-02-15T08:26:57;97948.03;;;2.43;100.00
6829;BME280;17930;48.592;8.868;2023-02-15T08:29:26;97937.81;;;3.73;100.00
6829;BME280;17930;48.592;8.868;2023-02-15T08:31:56;97927.69;;;4.98;100.00
6829;BME280;17930;48.592;8.868;2023-02-15T08:34:24;97922.00;;;6.35;100.00
6829;BME280;17930;48.592;8.868;2023-02-15T08:36:51;97909.13;;;7.05;100.00
6829;BME280;17930;48.592;8.868;2023-02-15T08:39:17;97905.66;;;7.51;100.00
6829;BME280;17930;48.592;8.868;2023-02-15T08:41:45;97911.94;;;7.32;100.00
6829;BME280;17930;48.592;8.868;2023-02-15T08:44:14;97911.00;;;8.75;100.00
6829;BME280;17930;48.592;8.868;2023-02-15T08:46:43;97932.44;;;8.43;100.00
6829;BME280;17930;48.592;8.868;2023-02-15T08:49:12;97924.16;;;8.96;100.00
6829;BME280;17930;48.592;8.868;2023-02-15T08:51:39;97938.81;;;9.74;100.00
6829;BME280;17930;48.592;8.868;2023-02-15T08:54:08;97937.38;;;9.83;100.00
6829;BME280;17930;48.592;8.868;2023-02-15T08:56:37;97936.22;;;10.82;100.00
6829;BME280;17930;48.592;8.868;2023-02-15T08:59:04;97926.84;;;11.33;100.00
6829;BME280;17930;48.592;8.868;2023-02-15T09:01:33;97929.47;;;11.91;100.00
6829;BME280;17930;48.592;8.868;2023-02-15T09:04:01;97926.09;;;12.41;100.00
6829;BME280;17930;48.592;8.868;2023-02-15T09:06:30;97918.53;;;13.01;100.00
6829;BME280;17930;48.592;8.868;2023-02-15T09:08:57;97914.69;;;13.53;100.00
6829;BME280;17930;48.592;8.868;2023-02-15T09:11:26;97911.78;;;13.25;100.00
6829;BME280;17930;48.592;8.868;2023-02-15T09:13:55;97927.31;;;12.19;99.89
6829;BME280;17930;48.592;8.868;2023-02-15T09:16:23;97918.00;;;12.38;100.00
6829;BME280;17930;48.592;8.868;2023-02-15T09:18:51;97913.25;;;12.35;100.00
6829;BME280;17930;48.592;8.868;2023-02-15T09:21:19;97914.69;;;12.62;100.00
6829;BME280;17930;48.592;8.868;2023-02-15T09:23:50;97903.94;;;13.34;99.04
6829;BME280;17930;48.592;8.868;2023-02-15T09:26:19;97908.94;;;13.85;96.12
6829;BME280;17930;48.592;8.868;2023-02-15T09:28:47;97904.22;;;14.12;92.69
6829;BME280;17930;48.592;8.868;2023-02-15T09:31:16;97886.28;;;14.54;82.51
6829;BME280;17930;48.592;8.868;2023-02-15T09:33:45;97888.75;;;13.76;83.86
6829;BME280;17930;48.592;8.868;2023-02-15T09:36:17;97893.94;;;14.35;82.27
6829;BME280;17930;48.592;8.868;2023-02-15T09:38:44;97888.13;;;14.48;82.48
6829;BME280;17930;48.592;8.868;2023-02-15T09:41:30;97885.03;;;14.36;81.42
6829;BME280;17930;48.592;8.868;2023-02-15T09:44:13;97880.81;;;14.35;79.46
6829;BME280;17930;48.592;8.868;2023-02-15T09:46:55;97873.44;;;15.48;79.34
6829;BME280;17930;48.592;8.868;2023-02-15T09:49:31;97876.44;;;13.91;73.64
6829;BME280;17930;48.592;8.868;2023-02-15T09:52:13;97877.00;;;14.71;73.40
6829;BME280;17930;48.592;8.868;2023-02-15T09:54:54;97870.81;;;15.43;71.67
6829;BME280;17930;48.592;8.868;2023-02-15T09:57:34;97872.75;;;14.85;72.61
6829;BME280;17930;48.592;8.868;2023-02-15T10:00:07;97869.41;;;15.18;69.32
6829;BME280;17930;48.592;8.868;2023-02-15T10:02:54;97870.75;;;15.53;67.04
6829;BME280;17930;48.592;8.868;2023-02-15T10:05:36;97869.63;;;15.59;69.19
6829;BME280;17930;48.592;8.868;2023-02-15T10:08:22;97868.88;;;15.87;65.00
6829;BME280;17930;48.592;8.868;2023-02-15T10:10:59;97874.03;;;14.30;70.32
6829;BME280;17930;48.592;8.868;2023-02-15T10:13:59;97869.94;;;15.20;68.58
6829;BME280;17930;48.592;8.868;2023-02-15T10:16:40;97870.31;;;16.03;69.89
6829;BME280;17930;48.592;8.868;2023-02-15T10:19:19;97869.34;;;15.28;67.69
6829;BME280;17930;48.592;8.868;2023-02-15T10:21:59;97867.28;;;15.91;68.02
6829;BME280;17930;48.592;8.868;2023-02-15T10:24:39;97870.19;;;15.56;67.42
6829;BME280;17930;48.592;8.868;2023-02-15T10:27:12;97863.59;;;16.67;66.82
6829;BME280;17930;48.592;8.868;2023-02-15T10:29:47;97856.06;;;16.97;62.86
6829;BME280;17930;48.592;8.868;2023-02-15T10:32:24;97860.47;;;16.42;64.32
6829;BME280;17930;48.592;8.868;2023-02-15T10:34:53;97852.09;;;16.76;64.55
6829;BME280;17930;48.592;8.868;2023-02-15T10:37:37;97846.00;;;17.36;63.44
6829;BME280;17930;48.592;8.868;2023-02-15T10:40:16;97846.94;;;17.76;61.67
6829;BME280;17930;48.592;8.868;2023-02-15T10:42:58;97848.81;;;18.21;59.57
6829;BME280;17930;48.592;8.868;2023-02-15T10:45:37;97841.78;;;17.85;59.69
6829;BME280;17930;48.592;8.868;2023-02-15T10:48:21;97836.59;;;17.80;59.50
6829;BME280;17930;48.592;8.868;2023-02-15T10:50:51;97832.34;;;17.65;60.22
6829;BME280;17930;48.592;8.868;2023-02-15T10:53:40;97822.88;;;18.49;58.95
6829;BME280;17930;48.592;8.868;2023-02-15T10:56:15;97828.47;;;17.76;59.25
6829;BME280;17930;48.592;8.868;2023-02-15T10:58:59;97826.81;;;17.80;59.93
6829;BME280;17930;48.592;8.868;2023-02-15T11:01:34;97822.41;;;18.96;59.58
6829;BME280;17930;48.592;8.868;2023-02-15T11:04:41;97817.16;;;19.18;57.83
6829;BME280;17930;48.592;8.868;2023-02-15T11:07:16;97818.75;;;18.70;57.92
6829;BME280;17930;48.592;8.868;2023-02-15T11:09:47;97814.47;;;20.05;56.62
6829;BME280;17930;48.592;8.868;2023-02-15T11:12:17;97807.72;;;20.85;53.90
6829;BME280;17930;48.592;8.868;2023-02-15T11:14:50;97807.06;;;19.63;55.79
6829;BME280;17930;48.592;8.868;2023-02-15T11:17:23;97803.84;;;20.44;53.55
6829;BME280;17930;48.592;8.868;2023-02-15T11:19:58;97802.47;;;19.77;53.61
6829;BME280;17930;48.592;8.868;2023-02-15T11:22:28;97794.25;;;20.09;53.87
6829;BME280;17930;48.592;8.868;2023-02-15T11:24:57;97792.22;;;19.84;54.47
6829;BME280;17930;48.592;8.868;2023-02-15T11:27:28;97787.44;;;21.14;52.08
6829;BME280;17930;48.592;8.868;2023-02-15T11:30:00;97778.88;;;21.88;51.15
6829;BME280;17930;48.592;8.868;2023-02-15T11:32:31;97784.94;;;20.75;51.66
6829;BME280;17930;48.592;8.868;2023-02-15T11:35:03;97782.41;;;20.70;52.30
6829;BME280;17930;48.592;8.868;2023-02-15T11:37:37;97779.75;;;21.71;50.45
6829;BME280;17930;48.592;8.868;2023-02-15T11:42:41;97768.50;;;22.49;50.25
6829;BME280;17930;48.592;8.868;2023-02-15T11:45:19;97765.47;;;23.52;48.39
6829;BME280;17930;48.592;8.868;2023-02-15T11:47:49;97763.38;;;24.25;46.94
6829;BME280;17930;48.592;8.868;2023-02-15T11:50:20;97763.34;;;23.77;45.61
6829;BME280;17930;48.592;8.868;2023-02-15T11:52:48;97760.25;;;23.23;46.42
6829;BME280;17930;48.592;8.868;2023-02-15T11:55:18;97752.53;;;22.89;47.74
6829;BME280;17930;48.592;8.868;2023-02-15T11:57:50;97753.19;;;22.66;47.42
6829;BME280;17930;48.592;8.868;2023-02-15T12:00:27;97745.78;;;22.71;48.23
6829;BME280;17930;48.592;8.868;2023-02-15T12:03:07;97746.47;;;22.40;48.63
6829;BME280;17930;48.592;8.868;2023-02-15T12:05:37;97745.59;;;21.90;50.05
6829;BME280;17930;48.592;8.868;2023-02-15T12:08:13;97743.19;;;23.24;48.04
6829;BME280;17930;48.592;8.868;2023-02-15T12:10:46;97740.13;;;23.14;47.84
6829;BME280;17930;48.592;8.868;2023-02-15T12:13:20;97740.72;;;24.07;46.31
6829;BME280;17930;48.592;8.868;2023-02-15T12:15:48;97742.72;;;24.10;45.49
6829;BME280;17930;48.592;8.868;2023-02-15T12:18:33;97734.63;;;23.18;46.60
6829;BME280;17930;48.592;8.868;2023-02-15T12:21:03;97726.38;;;22.71;46.90
6829;BME280;17930;48.592;8.868;2023-02-15T12:23:33;97730.47;;;22.89;46.93
6829;BME280;17930;48.592;8.868;2023-02-15T12:26:00;97723.81;;;23.91;45.28
6829;BME280;17930;48.592;8.868;2023-02-15T12:28:32;97726.91;;;23.70;44.36
6829;BME280;17930;48.592;8.868;2023-02-15T12:31:01;97723.16;;;24.42;43.85
6829;BME280;17930;48.592;8.868;2023-02-15T12:33:32;97722.06;;;24.43;43.31
6829;BME280;17930;48.592;8.868;2023-02-15T12:36:03;97718.41;;;24.74;42.32
6829;BME280;17930;48.592;8.868;2023-02-15T12:38:30;97708.41;;;24.83;43.04
6829;BME280;17930;48.592;8.868;2023-02-15T12:41:00;97713.88;;;24.63;43.41
6829;BME280;17930;48.592;8.868;2023-02-15T12:43:30;97708.34;;;24.95;42.54
6829;BME280;17930;48.592;8.868;2023-02-15T12:46:23;97710.38;;;24.86;42.65
6829;BME280;17930;48.592;8.868;2023-02-15T12:49:14;97709.69;;;25.44;41.06
6829;BME280;17930;48.592;8.868;2023-02-15T12:51:44;97692.84;;;25.28;42.94
6829;BME280;17930;48.592;8.868;2023-02-15T12:54:33;97704.81;;;24.05;42.74
6829;BME280;17930;48.592;8.868;2023-02-15T12:57:14;97698.34;;;24.92;41.88
6829;BME280;17930;48.592;8.868;2023-02-15T12:59:51;97701.63;;;24.74;41.47
6829;BME280;17930;48.592;8.868;2023-02-15T13:02:27;97696.28;;;24.74;41.71
6829;BME280;17930;48.592;8.868;2023-02-15T13:04:57;97690.63;;;25.73;40.11
6829;BME280;17930;48.592;8.868;2023-02-15T13:07:31;97682.75;;;25.95;39.84
6829;BME280;17930;48.592;8.868;2023-02-15T13:09:59;97679.50;;;25.28;40.78
6829;BME280;17930;48.592;8.868;2023-02-15T13:12:27;97680.97;;;25.41;40.91
6829;BME280;17930;48.592;8.868;2023-02-15T13:14:57;97672.97;;;26.18;39.94
6829;BME280;17930;48.592;8.868;2023-02-15T13:17:26;97667.97;;;26.16;40.08
6829;BME280;17930;48.592;8.868;2023-02-15T13:20:00;97671.13;;;26.37;37.40
6829;BME280;17930;48.592;8.868;2023-02-15T13:22:34;97655.03;;;25.87;40.21
6829;BME280;17930;48.592;8.868;2023-02-15T13:25:11;97656.34;;;26.43;39.33
6829;BME280;17930;48.592;8.868;2023-02-15T13:27:40;97653.88;;;26.19;40.12
6829;BME280;17930;48.592;8.868;2023-02-15T13:30:22;97648.66;;;24.76;41.33
6829;BME280;17930;48.592;8.868;2023-02-15T13:33:01;97645.34;;;24.79;41.06
6829;BME280;17930;48.592;8.868;2023-02-15T13:35:37;97636.06;;;25.62;41.36
6829;BME280;17930;48.592;8.868;2023-02-15T13:38:15;97641.56;;;25.38;40.65